Time;durP1;ratioP1;P1;durP2;ratioP2;P2;SDS_P1;SDS_P2;PMS_P1;PMS_P2;Temp;Humidity;BMP_temperature;BMP_pressure;BME280_temperature;BME280_humidity;BME280_pressure;Samples;Min_cycle;Max_cycle;Signal;HPM_P1;HPM_P2
2022/07/29 00:01:15;;;;;;;4.10;3.65;;;;;;;;;;5042903;28;20206;-32
2022/07/29 00:03:43;;;;;;;5.28;3.50;;;;;;;;;;5062405;28;20197;-32
2022/07/29 00:06:11;;;;;;;3.50;3.20;;;;;;;;;;5048902;28;20206;-34
2022/07/29 00:08:38;;;;;;;6.57;3.55;;;;;;;;;;5049923;28;20202;-32
2022/07/29 00:11:05;;;;;;;3.88;3.47;;;;;;;;;;5069425;28;20212;-34
2022/07/29 00:13:32;;;;;;;3.83;3.40;;;;;;;;;;5055423;28;20199;-33
2022/07/29 00:16:00;;;;;;;5.25;3.97;;;;;;;;;;5055131;28;20206;-34
2022/07/29 00:18:27;;;;;;;3.05;2.75;;;;;;;;;;5058287;28;20228;-32
2022/07/29 00:20:55;;;;;;;3.95;3.65;;;;;;;;;;5042936;28;20216;-33
2022/07/29 00:23:24;;;;;;;3.75;3.40;;;;;;;;;;5068824;28;20237;-33
2022/07/29 00:25:51;;;;;;;5.35;3.92;;;;;;;;;;5054338;28;20194;-34
2022/07/29 00:28:18;;;;;;;4.00;3.70;;;;;;;;;;5047246;28;20226;-34
2022/07/29 00:30:45;;;;;;;4.25;3.85;;;;;;;;;;5053192;28;20297;-33
2022/07/29 00:33:12;;;;;;;3.63;3.28;;;;;;;;;;5046964;28;20215;-34
2022/07/29 00:35:44;;;;;;;5.00;3.70;;;;;;;;;;5038357;28;20218;-34
2022/07/29 00:38:12;;;;;;;4.55;4.15;;;;;;;;;;5067488;28;20229;-34
2022/07/29 00:40:41;;;;;;;3.97;3.50;;;;;;;;;;5070312;28;20215;-35
2022/07/29 00:43:08;;;;;;;7.50;3.40;;;;;;;;;;5070012;28;20216;-33
2022/07/29 00:45:36;;;;;;;5.15;3.42;;;;;;;;;;5051547;28;20232;-36
2022/07/29 00:48:04;;;;;;;3.35;3.05;;;;;;;;;;5049744;28;20287;-34
2022/07/29 00:50:32;;;;;;;4.03;3.45;;;;;;;;;;5052607;28;20217;-34
2022/07/29 00:52:59;;;;;;;4.15;3.40;;;;;;;;;;5049030;28;20216;-32
2022/07/29 00:55:26;;;;;;;4.22;3.83;;;;;;;;;;5062977;28;20194;-34
2022/07/29 00:57:55;;;;;;;3.90;3.60;;;;;;;;;;5070012;28;20225;-36
2022/07/29 01:00:23;;;;;;;3.78;3.47;;;;;;;;;;5047695;28;20207;-32
2022/07/29 01:02:50;;;;;;;6.50;3.50;;;;;;;;;;5049658;28;20220;-36
2022/07/29 01:05:18;;;;;;;3.40;3.10;;;;;;;;;;5048674;28;20216;-35
2022/07/29 01:07:46;;;;;;;3.67;3.38;;;;;;;;;;5048903;28;20243;-34
2022/07/29 01:10:14;;;;;;;3.75;3.42;;;;;;;;;;5053980;28;20201;-34
2022/07/29 01:12:42;;;;;;;5.50;3.78;;;;;;;;;;5052899;28;20203;-34
2022/07/29 01:15:11;;;;;;;3.60;3.30;;;;;;;;;;5051908;28;20214;-31
2022/07/29 01:17:40;;;;;;;4.75;3.55;;;;;;;;;;5056200;28;20220;-32
2022/07/29 01:20:11;;;;;;;4.07;3.67;;;;;;;;;;5051666;28;20230;-34
2022/07/29 01:22:44;;;;;;;5.75;3.25;;;;;;;;;;5061621;28;20251;-32
2022/07/29 01:25:21;;;;;;;4.97;3.88;;;;;;;;;;5064589;28;20213;-33
2022/07/29 01:28:02;;;;;;;3.30;3.00;;;;;;;;;;5072407;28;20284;-37
2022/07/29 01:30:32;;;;;;;4.03;3.58;;;;;;;;;;5057881;28;20216;-32
2022/07/29 01:33:01;;;;;;;3.08;2.88;;;;;;;;;;5050432;28;20206;-33
2022/07/29 01:35:32;;;;;;;5.53;3.35;;;;;;;;;;5045400;28;20274;-31
2022/07/29 01:38:03;;;;;;;3.38;3.08;;;;;;;;;;5059302;28;20230;-36
2022/07/29 01:40:32;;;;;;;3.50;3.20;;;;;;;;;;5058829;28;20198;-35
2022/07/29 01:43:01;;;;;;;3.05;2.85;;;;;;;;;;5048816;28;20206;-32
2022/07/29 01:45:33;;;;;;;3.90;3.17;;;;;;;;;;5039188;28;20202;-34
2022/07/29 01:48:02;;;;;;;3.00;2.75;;;;;;;;;;5058152;28;20323;-34
2022/07/29 01:50:32;;;;;;;4.68;3.25;;;;;;;;;;5055516;28;20199;-35
2022/07/29 01:53:01;;;;;;;6.50;3.55;;;;;;;;;;5058927;28;20206;-32
2022/07/29 01:55:33;;;;;;;3.75;2.88;;;;;;;;;;5065990;28;20255;-34
2022/07/29 01:58:01;;;;;;;3.55;3.35;;;;;;;;;;5054751;28;20230;-34
2022/07/29 02:00:29;;;;;;;3.70;3.40;;;;;;;;;;5052545;28;20204;-33
2022/07/29 02:02:57;;;;;;;5.05;3.30;;;;;;;;;;5063474;28;20202;-33
2022/07/29 02:05:28;;;;;;;3.95;3.38;;;;;;;;;;5048582;28;20269;-37
2022/07/29 02:07:57;;;;;;;3.03;2.72;;;;;;;;;;5057990;28;20229;-33
2022/07/29 02:10:26;;;;;;;3.88;3.20;;;;;;;;;;5073001;28;20203;-36
2022/07/29 02:12:55;;;;;;;4.65;2.97;;;;;;;;;;5053090;28;20210;-32
2022/07/29 02:15:24;;;;;;;3.38;3.08;;;;;;;;;;5047814;28;20202;-32
2022/07/29 02:17:53;;;;;;;4.32;2.58;;;;;;;;;;5060860;28;20217;-31
2022/07/29 02:20:20;;;;;;;3.13;2.85;;;;;;;;;;5062522;28;20226;-34
2022/07/29 02:22:50;;;;;;;3.20;2.90;;;;;;;;;;5066291;28;20205;-34
2022/07/29 02:25:17;;;;;;;3.30;3.00;;;;;;;;;;5056012;28;20486;-33
2022/07/29 02:27:45;;;;;;;3.45;3.22;;;;;;;;;;5056852;28;20237;-34
2022/07/29 02:30:14;;;;;;;3.25;3.00;;;;;;;;;;5046714;28;20214;-33
2022/07/29 02:32:43;;;;;;;4.22;3.05;;;;;;;;;;5046850;28;20202;-33
2022/07/29 02:35:10;;;;;;;3.80;3.27;;;;;;;;;;5055988;28;20218;-33
2022/07/29 02:37:38;;;;;;;4.40;3.22;;;;;;;;;;5055230;28;20222;-35
2022/07/29 02:40:09;;;;;;;3.40;3.10;;;;;;;;;;5060550;28;20229;-35
2022/07/29 02:42:38;;;;;;;3.88;3.35;;;;;;;;;;5052610;28;20667;-34
2022/07/29 02:45:05;;;;;;;4.03;3.63;;;;;;;;;;5050393;28;20234;-35
2022/07/29 02:47:36;;;;;;;3.50;3.20;;;;;;;;;;5046959;28;20224;-32
2022/07/29 02:50:07;;;;;;;3.72;3.42;;;;;;;;;;5058684;28;20201;-32
2022/07/29 02:52:39;;;;;;;4.07;3.67;;;;;;;;;;5067357;28;20251;-35
2022/07/29 02:55:10;;;;;;;4.55;3.35;;;;;;;;;;5047524;28;20206;-35
2022/07/29 02:57:40;;;;;;;2.83;2.63;;;;;;;;;;5051449;28;20221;-32
2022/07/29 03:00:08;;;;;;;2.90;2.70;;;;;;;;;;5070207;28;20228;-34
2022/07/29 03:02:37;;;;;;;3.10;2.90;;;;;;;;;;5071863;28;20208;-35
2022/07/29 03:05:04;;;;;;;3.25;2.80;;;;;;;;;;5044222;28;20210;-35
2022/07/29 03:07:31;;;;;;;2.97;2.78;;;;;;;;;;5044899;28;20217;-35
2022/07/29 03:09:59;;;;;;;5.43;3.30;;;;;;;;;;5058749;28;20212;-34
2022/07/29 03:12:28;;;;;;;3.78;3.47;;;;;;;;;;5051510;28;20210;-33
2022/07/29 03:14:55;;;;;;;2.70;2.60;;;;;;;;;;5041844;28;20213;-34
2022/07/29 03:17:23;;;;;;;5.43;3.20;;;;;;;;;;5054031;28;20262;-36
2022/07/29 03:19:50;;;;;;;3.20;3.00;;;;;;;;;;5059451;28;20224;-34
2022/07/29 03:22:17;;;;;;;4.03;3.60;;;;;;;;;;5055459;28;20240;-33
2022/07/29 03:24:44;;;;;;;3.40;3.10;;;;;;;;;;5051077;28;20216;-35
2022/07/29 03:27:11;;;;;;;2.97;2.78;;;;;;;;;;5051388;28;20217;-34
2022/07/29 03:29:40;;;;;;;3.72;3.42;;;;;;;;;;5045655;28;20197;-35
2022/07/29 03:32:07;;;;;;;3.37;3.03;;;;;;;;;;5058593;28;20209;-35
2022/07/29 03:34:34;;;;;;;5.13;4.03;;;;;;;;;;5050663;28;20213;-34
2022/07/29 03:37:01;;;;;;;5.47;3.43;;;;;;;;;;5043649;28;20230;-36
2022/07/29 03:39:31;;;;;;;3.10;2.90;;;;;;;;;;5055850;28;20217;-32
2022/07/29 03:41:59;;;;;;;5.63;3.53;;;;;;;;;;5070639;28;20216;-31
2022/07/29 03:44:27;;;;;;;3.30;2.43;;;;;;;;;;5051353;28;20208;-32
2022/07/29 03:46:57;;;;;;;3.50;3.30;;;;;;;;;;5057533;28;20225;-32
2022/07/29 03:49:26;;;;;;;3.37;3.17;;;;;;;;;;5070637;28;20208;-34
2022/07/29 03:51:53;;;;;;;3.25;3.05;;;;;;;;;;5041516;28;20297;-35
2022/07/29 03:54:20;;;;;;;3.30;3.10;;;;;;;;;;5050216;28;20205;-33
2022/07/29 03:56:50;;;;;;;2.97;2.77;;;;;;;;;;5050540;28;20222;-35
2022/07/29 03:59:19;;;;;;;2.80;2.60;;;;;;;;;;5043464;28;20258;-34
2022/07/29 04:01:47;;;;;;;3.03;2.83;;;;;;;;;;5051215;28;20217;-34
2022/07/29 04:04:15;;;;;;;3.50;2.53;;;;;;;;;;5052025;28;20208;-30
2022/07/29 04:06:43;;;;;;;3.00;2.80;;;;;;;;;;5048209;28;20227;-35
2022/07/29 04:09:11;;;;;;;3.05;2.85;;;;;;;;;;5053954;28;20206;-32
2022/07/29 04:11:39;;;;;;;2.90;2.70;;;;;;;;;;5072990;28;20392;-34
2022/07/29 04:14:06;;;;;;;3.53;2.57;;;;;;;;;;5066243;28;20221;-33
2022/07/29 04:16:34;;;;;;;3.30;3.00;;;;;;;;;;5051547;28;20284;-36
2022/07/29 04:19:02;;;;;;;3.73;2.90;;;;;;;;;;5055596;28;20205;-35
2022/07/29 04:21:30;;;;;;;2.90;2.70;;;;;;;;;;5046580;28;20197;-32
2022/07/29 04:23:57;;;;;;;3.70;3.40;;;;;;;;;;5060975;28;20197;-31
2022/07/29 04:26:24;;;;;;;2.77;2.57;;;;;;;;;;5059563;28;20197;-35
2022/07/29 04:28:52;;;;;;;3.13;2.83;;;;;;;;;;5072093;28;20203;-34
2022/07/29 04:31:19;;;;;;;3.57;2.90;;;;;;;;;;5047912;28;20201;-33
2022/07/29 04:33:46;;;;;;;3.50;3.07;;;;;;;;;;5040501;28;20225;-35
2022/07/29 04:36:14;;;;;;;3.10;2.90;;;;;;;;;;5047451;28;20201;-37
2022/07/29 04:38:42;;;;;;;2.77;2.57;;;;;;;;;;5062331;28;20204;-34
2022/07/29 04:41:10;;;;;;;2.73;2.53;;;;;;;;;;5050510;28;20214;-34
2022/07/29 04:43:37;;;;;;;3.03;2.80;;;;;;;;;;5049570;28;20219;-34
2022/07/29 04:46:04;;;;;;;5.40;2.93;;;;;;;;;;5045950;28;20202;-33
2022/07/29 04:48:31;;;;;;;6.03;3.10;;;;;;;;;;5059465;28;20205;-32
2022/07/29 04:50:58;;;;;;;7.00;3.40;;;;;;;;;;5048164;28;20224;-34
2022/07/29 04:53:26;;;;;;;3.17;2.97;;;;;;;;;;5056139;28;20193;-36
2022/07/29 04:55:54;;;;;;;5.07;3.83;;;;;;;;;;5052707;28;20212;-33
2022/07/29 04:58:22;;;;;;;3.63;3.33;;;;;;;;;;5048134;28;20222;-33
2022/07/29 05:00:50;;;;;;;3.40;3.20;;;;;;;;;;5051423;28;20240;-33
2022/07/29 05:03:17;;;;;;;3.47;3.27;;;;;;;;;;5051190;28;20205;-32
2022/07/29 05:05:44;;;;;;;3.37;3.10;;;;;;;;;;5049235;28;20206;-35
2022/07/29 05:08:11;;;;;;;3.57;3.23;;;;;;;;;;5052434;28;20233;-34
2022/07/29 05:10:38;;;;;;;3.20;2.87;;;;;;;;;;5071826;28;20201;-33
2022/07/29 05:13:07;;;;;;;4.60;3.30;;;;;;;;;;5071687;28;20201;-32
2022/07/29 05:15:35;;;;;;;4.20;3.33;;;;;;;;;;5051269;28;20298;-34
2022/07/29 05:18:02;;;;;;;5.50;3.27;;;;;;;;;;5057115;28;20228;-31
2022/07/29 05:20:30;;;;;;;3.33;3.03;;;;;;;;;;5054164;28;20222;-31
2022/07/29 05:22:57;;;;;;;2.87;2.67;;;;;;;;;;5052439;28;20271;-31
2022/07/29 05:25:25;;;;;;;4.23;3.03;;;;;;;;;;5068212;28;20201;-31
2022/07/29 05:27:52;;;;;;;3.43;2.97;;;;;;;;;;5075826;28;20239;-32
2022/07/29 05:30:21;;;;;;;3.67;3.37;;;;;;;;;;5052159;28;20212;-31
2022/07/29 05:32:48;;;;;;;4.23;3.40;;;;;;;;;;5051082;28;20201;-31
2022/07/29 05:37:43;;;;;;;3.50;3.20;;;;;;;;;;5083425;28;20246;-32
2022/07/29 05:40:11;;;;;;;3.83;3.20;;;;;;;;;;5082199;28;20225;-35
2022/07/29 05:42:38;;;;;;;3.50;3.20;;;;;;;;;;5072226;28;20205;-32
2022/07/29 05:45:06;;;;;;;4.67;3.50;;;;;;;;;;5072340;28;20212;-32
2022/07/29 05:47:34;;;;;;;5.00;3.50;;;;;;;;;;5073575;28;20216;-33
2022/07/29 05:50:01;;;;;;;4.80;3.47;;;;;;;;;;5071445;28;20198;-33
2022/07/29 05:52:28;;;;;;;5.43;3.25;;;;;;;;;;5070947;28;20239;-29
2022/07/29 05:54:56;;;;;;;6.15;3.75;;;;;;;;;;5081391;28;20200;-32
2022/07/29 05:57:24;;;;;;;6.60;3.63;;;;;;;;;;5078251;28;20221;-31
2022/07/29 05:59:51;;;;;;;7.38;3.63;;;;;;;;;;5062705;28;20213;-33
2022/07/29 06:02:19;;;;;;;5.45;4.03;;;;;;;;;;5084339;28;20199;-31
2022/07/29 06:04:48;;;;;;;4.13;3.78;;;;;;;;;;5089659;28;20196;-30
2022/07/29 06:07:15;;;;;;;3.78;3.42;;;;;;;;;;5082157;28;20227;-34
2022/07/29 06:09:43;;;;;;;4.28;3.83;;;;;;;;;;5077087;28;20192;-35
2022/07/29 06:12:10;;;;;;;3.65;3.35;;;;;;;;;;5063616;28;20201;-34
2022/07/29 06:14:38;;;;;;;3.60;3.22;;;;;;;;;;5072099;28;20212;-30
2022/07/29 06:17:06;;;;;;;11.20;3.90;;;;;;;;;;5080194;28;20224;-30
2022/07/29 06:19:35;;;;;;;5.18;3.67;;;;;;;;;;5072218;28;20227;-30
2022/07/29 06:22:03;;;;;;;7.72;3.80;;;;;;;;;;5062189;28;20296;-33
2022/07/29 06:24:31;;;;;;;3.70;3.03;;;;;;;;;;5078355;28;20200;-32
2022/07/29 06:26:58;;;;;;;5.70;3.67;;;;;;;;;;5074297;28;20233;-32
2022/07/29 06:29:25;;;;;;;4.10;3.70;;;;;;;;;;5065863;28;20292;-33
2022/07/29 06:31:52;;;;;;;4.10;3.70;;;;;;;;;;5074659;28;20215;-32
2022/07/29 06:34:20;;;;;;;4.20;3.55;;;;;;;;;;5092659;28;20200;-33
2022/07/29 06:36:47;;;;;;;4.60;4.07;;;;;;;;;;5074186;28;20232;-31
2022/07/29 06:39:15;;;;;;;3.47;2.95;;;;;;;;;;5074412;28;20202;-32
2022/07/29 06:41:42;;;;;;;4.15;3.53;;;;;;;;;;5076498;28;20217;-32
2022/07/29 06:44:10;;;;;;;4.13;3.38;;;;;;;;;;5066052;28;20205;-31
2022/07/29 06:46:37;;;;;;;6.57;3.80;;;;;;;;;;5074332;28;20220;-34
2022/07/29 06:49:05;;;;;;;3.20;2.90;;;;;;;;;;5091672;28;20193;-35
2022/07/29 06:51:32;;;;;;;5.35;3.70;;;;;;;;;;5066966;28;20197;-32
2022/07/29 06:54:00;;;;;;;4.00;3.60;;;;;;;;;;5068231;28;20215;-31
2022/07/29 06:56:29;;;;;;;3.67;3.38;;;;;;;;;;5063508;28;20254;-33
2022/07/29 06:58:56;;;;;;;4.35;3.20;;;;;;;;;;5071391;28;20230;-30
2022/07/29 07:01:23;;;;;;;3.83;3.42;;;;;;;;;;5068486;28;20377;-32
2022/07/29 07:03:50;;;;;;;4.38;3.97;;;;;;;;;;5090573;28;20200;-32
2022/07/29 07:06:17;;;;;;;6.18;3.70;;;;;;;;;;5057176;28;20202;-33
2022/07/29 07:08:44;;;;;;;4.85;3.63;;;;;;;;;;5069828;28;20218;-31
2022/07/29 07:11:12;;;;;;;3.53;3.05;;;;;;;;;;5090673;28;20196;-35
2022/07/29 07:13:40;;;;;;;6.40;3.20;;;;;;;;;;5081079;28;20294;-34
2022/07/29 07:16:07;;;;;;;3.70;3.40;;;;;;;;;;5068248;28;20205;-41
2022/07/29 07:18:34;;;;;;;3.95;3.08;;;;;;;;;;5071081;28;20204;-32
2022/07/29 07:21:01;;;;;;;4.03;3.20;;;;;;;;;;5067341;28;20221;-32
2022/07/29 07:23:28;;;;;;;12.10;3.20;;;;;;;;;;5069962;28;20270;-32
2022/07/29 07:25:56;;;;;;;6.78;3.17;;;;;;;;;;5070761;28;20223;-31
2022/07/29 07:28:23;;;;;;;3.47;2.60;;;;;;;;;;5063569;28;20213;-31
2022/07/29 07:30:51;;;;;;;5.40;2.72;;;;;;;;;;5074199;28;20201;-32
2022/07/29 07:33:18;;;;;;;2.90;2.42;;;;;;;;;;5070846;28;20211;-31
2022/07/29 07:35:46;;;;;;;3.33;2.42;;;;;;;;;;5066049;28;20208;-30
2022/07/29 07:38:13;;;;;;;5.03;2.85;;;;;;;;;;5077088;28;20221;-34
2022/07/29 07:40:40;;;;;;;2.85;2.40;;;;;;;;;;5078768;28;20217;-32
2022/07/29 07:43:07;;;;;;;3.00;2.78;;;;;;;;;;5063814;28;20208;-31
2022/07/29 07:45:36;;;;;;;4.28;2.20;;;;;;;;;;5061642;28;20201;-32
2022/07/29 07:48:05;;;;;;;3.70;2.47;;;;;;;;;;5080983;28;20224;-34
2022/07/29 07:50:32;;;;;;;4.40;2.65;;;;;;;;;;5071140;28;20208;-32
2022/07/29 07:53:01;;;;;;;3.70;2.33;;;;;;;;;;5075815;28;20201;-31
2022/07/29 07:55:29;;;;;;;2.35;2.25;;;;;;;;;;5083904;28;20211;-30
2022/07/29 07:57:56;;;;;;;2.42;2.22;;;;;;;;;;5085936;28;20213;-33
2022/07/29 08:00:23;;;;;;;3.85;2.30;;;;;;;;;;5074135;28;20227;-33
2022/07/29 08:02:51;;;;;;;2.25;2.08;;;;;;;;;;5073752;28;20264;-31
2022/07/29 08:05:19;;;;;;;2.40;2.20;;;;;;;;;;5061299;28;20202;-33
2022/07/29 08:07:47;;;;;;;2.40;2.20;;;;;;;;;;5066493;28;20252;-33
2022/07/29 08:10:15;;;;;;;3.78;2.33;;;;;;;;;;5077971;28;20662;-34
2022/07/29 08:12:42;;;;;;;2.42;2.22;;;;;;;;;;5069899;28;20670;-34
2022/07/29 08:15:10;;;;;;;2.88;2.58;;;;;;;;;;5062966;28;20205;-31
2022/07/29 08:17:37;;;;;;;3.20;2.88;;;;;;;;;;5060636;28;20228;-32
2022/07/29 08:20:04;;;;;;;3.50;2.78;;;;;;;;;;5074326;28;20205;-34
2022/07/29 08:22:33;;;;;;;3.45;2.53;;;;;;;;;;5063166;28;20201;-32
2022/07/29 08:25:00;;;;;;;4.25;2.85;;;;;;;;;;5079127;28;20197;-31
2022/07/29 08:27:30;;;;;;;2.83;2.58;;;;;;;;;;5090526;28;20220;-32
2022/07/29 08:29:57;;;;;;;3.35;2.60;;;;;;;;;;5064918;28;20207;-34
2022/07/29 08:32:24;;;;;;;3.30;3.10;;;;;;;;;;5068618;28;20284;-32
2022/07/29 08:34:51;;;;;;;3.72;2.55;;;;;;;;;;5066367;28;20205;-30
2022/07/29 08:37:19;;;;;;;3.78;2.83;;;;;;;;;;5073962;28;20228;-31
2022/07/29 08:39:47;;;;;;;3.05;2.78;;;;;;;;;;5081665;28;20213;-31
2022/07/29 08:42:16;;;;;;;3.33;2.50;;;;;;;;;;5061165;28;20215;-33
2022/07/29 08:44:43;;;;;;;3.08;2.70;;;;;;;;;;5057301;28;20204;-33
2022/07/29 08:47:11;;;;;;;3.33;2.67;;;;;;;;;;5072835;28;20217;-32
2022/07/29 08:49:38;;;;;;;3.17;2.80;;;;;;;;;;5070087;28;20208;-29
2022/07/29 08:52:06;;;;;;;3.65;3.17;;;;;;;;;;5067025;28;20201;-33
2022/07/29 08:54:34;;;;;;;3.42;2.70;;;;;;;;;;5074074;28;20208;-31
2022/07/29 08:57:03;;;;;;;4.00;3.10;;;;;;;;;;5069631;28;20212;-33
2022/07/29 08:59:31;;;;;;;3.67;3.08;;;;;;;;;;5066288;28;20193;-34
2022/07/29 09:02:00;;;;;;;4.05;3.30;;;;;;;;;;5068073;28;20220;-31
2022/07/29 09:04:31;;;;;;;4.88;3.75;;;;;;;;;;5071430;28;20243;-31
2022/07/29 09:07:02;;;;;;;4.28;2.95;;;;;;;;;;5065392;28;20254;-30
2022/07/29 09:09:29;;;;;;;5.97;2.90;;;;;;;;;;5075710;28;20189;-31
2022/07/29 09:11:56;;;;;;;3.38;2.90;;;;;;;;;;5068837;28;20211;-31
2022/07/29 09:14:24;;;;;;;3.33;3.03;;;;;;;;;;5060879;28;20208;-32
2022/07/29 09:16:53;;;;;;;4.80;2.90;;;;;;;;;;5075863;28;20235;-29
2022/07/29 09:19:21;;;;;;;6.18;3.10;;;;;;;;;;5069946;28;20198;-32
2022/07/29 09:22:01;;;;;;;3.33;2.92;;;;;;;;;;5058075;28;20263;-32
2022/07/29 09:24:43;;;;;;;4.30;2.70;;;;;;;;;;5062015;28;20195;-31
2022/07/29 09:27:20;;;;;;;3.38;3.08;;;;;;;;;;5066390;28;20228;-32
2022/07/29 09:29:48;;;;;;;4.43;2.88;;;;;;;;;;5066095;28;20247;-33
2022/07/29 09:32:15;;;;;;;3.78;3.13;;;;;;;;;;5062041;28;20198;-33
2022/07/29 09:34:43;;;;;;;2.90;2.67;;;;;;;;;;5067488;28;20204;-34
2022/07/29 09:37:11;;;;;;;4.97;3.40;;;;;;;;;;5071651;28;20242;-33
2022/07/29 09:39:45;;;;;;;2.72;2.53;;;;;;;;;;5089507;28;20219;-31
2022/07/29 09:42:13;;;;;;;3.55;3.25;;;;;;;;;;5089620;28;20221;-31
2022/07/29 09:44:44;;;;;;;3.42;2.78;;;;;;;;;;5060282;28;20204;-31
2022/07/29 09:47:12;;;;;;;3.88;2.95;;;;;;;;;;5075166;28;20213;-35
2022/07/29 09:49:52;;;;;;;3.70;3.33;;;;;;;;;;5057176;28;20213;-32
2022/07/29 09:52:19;;;;;;;2.85;2.65;;;;;;;;;;5062348;28;20220;-33
2022/07/29 09:54:47;;;;;;;3.30;3.00;;;;;;;;;;5068915;28;20201;-33
2022/07/29 09:57:23;;;;;;;3.75;2.70;;;;;;;;;;5067140;28;20299;-31
2022/07/29 09:59:56;;;;;;;3.78;3.00;;;;;;;;;;5063307;28;20204;-33
2022/07/29 10:02:28;;;;;;;3.05;2.85;;;;;;;;;;5070058;28;20204;-33
2022/07/29 10:04:56;;;;;;;3.53;3.22;;;;;;;;;;5079176;28;20207;-33
2022/07/29 10:07:23;;;;;;;3.33;2.92;;;;;;;;;;5076853;28;20246;-30
2022/07/29 10:09:57;;;;;;;3.90;3.22;;;;;;;;;;5076395;28;20209;-30
2022/07/29 10:12:25;;;;;;;5.45;3.50;;;;;;;;;;5075183;28;20268;-29
2022/07/29 10:14:52;;;;;;;3.85;2.97;;;;;;;;;;5061047;28;20211;-32
2022/07/29 10:17:20;;;;;;;4.93;2.78;;;;;;;;;;5074966;28;20223;-30
2022/07/29 10:19:49;;;;;;;3.58;3.03;;;;;;;;;;5076036;28;20214;-32
2022/07/29 10:22:16;;;;;;;4.28;3.08;;;;;;;;;;5073635;28;20223;-32
2022/07/29 10:24:43;;;;;;;3.72;3.42;;;;;;;;;;5074731;28;20268;-33
2022/07/29 10:27:11;;;;;;;4.72;3.22;;;;;;;;;;5074021;28;20253;-33
2022/07/29 10:29:38;;;;;;;4.68;3.38;;;;;;;;;;5066719;28;20207;-33
2022/07/29 10:32:18;;;;;;;5.43;3.75;;;;;;;;;;5072506;28;20201;-30
2022/07/29 10:34:56;;;;;;;3.90;3.60;;;;;;;;;;5072004;28;20212;-30
2022/07/29 10:37:27;;;;;;;4.53;3.53;;;;;;;;;;5071823;28;20242;-31
2022/07/29 10:39:57;;;;;;;3.50;3.20;;;;;;;;;;5074443;28;20208;-32
2022/07/29 10:42:24;;;;;;;3.53;3.22;;;;;;;;;;5074230;28;20322;-34
2022/07/29 10:44:55;;;;;;;5.43;3.22;;;;;;;;;;5069291;28;20208;-32
2022/07/29 10:47:24;;;;;;;4.10;3.17;;;;;;;;;;5075894;28;20220;-30
2022/07/29 10:49:59;;;;;;;3.67;3.40;;;;;;;;;;5075181;28;20208;-32
2022/07/29 10:52:48;;;;;;;3.67;3.38;;;;;;;;;;5069105;28;20191;-31
2022/07/29 10:55:39;;;;;;;9.38;3.50;;;;;;;;;;5075956;28;20208;-31
2022/07/29 10:58:13;;;;;;;4.45;3.13;;;;;;;;;;5071130;28;20279;-31
2022/07/29 11:00:40;;;;;;;6.10;3.50;;;;;;;;;;5073872;28;20257;-32
2022/07/29 11:03:08;;;;;;;4.60;3.50;;;;;;;;;;5080837;28;20223;-33
2022/07/29 11:05:52;;;;;;;3.78;2.95;;;;;;;;;;5068445;28;20271;-33
2022/07/29 11:08:23;;;;;;;3.88;3.45;;;;;;;;;;5068350;28;20219;-31
2022/07/29 11:10:51;;;;;;;5.13;3.40;;;;;;;;;;5079996;28;20280;-33
2022/07/29 11:13:33;;;;;;;4.30;3.30;;;;;;;;;;5073273;28;20203;-31
2022/07/29 11:16:00;;;;;;;3.60;3.33;;;;;;;;;;5070517;28;20204;-32
2022/07/29 11:18:27;;;;;;;4.15;3.35;;;;;;;;;;5072309;28;20232;-32
2022/07/29 11:20:54;;;;;;;5.03;3.70;;;;;;;;;;5065355;28;20209;-32
2022/07/29 11:23:26;;;;;;;4.07;3.78;;;;;;;;;;5084610;28;20219;-31
2022/07/29 11:26:12;;;;;;;6.18;3.38;;;;;;;;;;5093517;28;20246;-33
2022/07/29 11:28:41;;;;;;;3.42;3.13;;;;;;;;;;5093768;28;20244;-31
2022/07/29 11:31:09;;;;;;;3.97;3.30;;;;;;;;;;5079849;28;20211;-31
2022/07/29 11:33:37;;;;;;;3.67;3.33;;;;;;;;;;5090609;28;20191;-33
2022/07/29 11:36:11;;;;;;;3.70;3.30;;;;;;;;;;5072453;28;20238;-33
2022/07/29 11:38:39;;;;;;;4.32;3.08;;;;;;;;;;5085053;28;20198;-31
2022/07/29 11:41:23;;;;;;;3.75;3.17;;;;;;;;;;5094063;28;20204;-31
2022/07/29 11:43:52;;;;;;;3.78;3.47;;;;;;;;;;5092910;28;20212;-32
2022/07/29 11:46:40;;;;;;;5.40;2.72;;;;;;;;;;5076487;28;20207;-32
2022/07/29 11:49:08;;;;;;;2.85;2.50;;;;;;;;;;5080921;28;20212;-30
2022/07/29 11:51:35;;;;;;;4.75;2.40;;;;;;;;;;5067149;28;20245;-31
2022/07/29 11:54:05;;;;;;;5.05;1.88;;;;;;;;;;5069683;28;20199;-29
2022/07/29 11:56:32;;;;;;;2.20;1.67;;;;;;;;;;5072538;28;20226;-29
2022/07/29 11:59:05;;;;;;;3.05;2.00;;;;;;;;;;5093358;28;20190;-31
2022/07/29 12:01:32;;;;;;;4.22;2.20;;;;;;;;;;5090662;28;20239;-32
2022/07/29 12:04:04;;;;;;;3.90;2.13;;;;;;;;;;5064165;28;20211;-32
2022/07/29 12:06:31;;;;;;;5.80;2.05;;;;;;;;;;5081570;28;20225;-28
2022/07/29 12:08:59;;;;;;;4.28;2.00;;;;;;;;;;5082259;28;20213;-29
2022/07/29 12:11:35;;;;;;;2.67;1.52;;;;;;;;;;5073268;28;20210;-31
2022/07/29 12:14:03;;;;;;;3.40;2.30;;;;;;;;;;5067759;28;20234;-30
2022/07/29 12:16:36;;;;;;;1.90;1.77;;;;;;;;;;5075972;28;20240;-32
2022/07/29 12:19:05;;;;;;;3.95;1.95;;;;;;;;;;5064816;28;20243;-31
2022/07/29 12:21:44;;;;;;;3.67;2.00;;;;;;;;;;5067700;28;20192;-28
2022/07/29 12:24:11;;;;;;;3.97;2.00;;;;;;;;;;5320836;22;20263;-33
2022/07/29 12:26:50;;;;;;;4.60;2.20;;;;;;;;;;5049023;28;20218;-34
2022/07/29 12:29:17;;;;;;;3.80;2.03;;;;;;;;;;5038230;28;20288;-32
2022/07/29 12:31:46;;;;;;;2.97;1.88;;;;;;;;;;5047321;28;20531;-31
2022/07/29 12:34:13;;;;;;;4.38;2.17;;;;;;;;;;5056273;28;20203;-32
2022/07/29 12:36:41;;;;;;;3.35;1.95;;;;;;;;;;5048531;28;20226;-33
2022/07/29 12:39:08;;;;;;;4.35;2.50;;;;;;;;;;5058056;28;20214;-33
2022/07/29 12:41:36;;;;;;;4.15;2.42;;;;;;;;;;5049585;28;20210;-30
2022/07/29 12:44:04;;;;;;;4.15;2.20;;;;;;;;;;5047855;28;20195;-34
2022/07/29 12:46:32;;;;;;;4.53;2.63;;;;;;;;;;5041770;28;20692;-36
2022/07/29 12:48:59;;;;;;;4.05;2.78;;;;;;;;;;5047670;28;20225;-33
2022/07/29 12:51:32;;;;;;;6.97;4.50;;;;;;;;;;5049677;28;20207;-33
2022/07/29 12:54:07;;;;;;;3.47;2.33;;;;;;;;;;5049736;28;20208;-33
2022/07/29 12:56:34;;;;;;;2.55;2.35;;;;;;;;;;5070063;28;20239;-34
2022/07/29 12:59:01;;;;;;;4.32;1.95;;;;;;;;;;5049611;28;20206;-36
2022/07/29 13:01:37;;;;;;;4.55;2.50;;;;;;;;;;5048992;28;20211;-35
2022/07/29 13:04:04;;;;;;;4.25;2.35;;;;;;;;;;5049734;28;20209;-33
2022/07/29 13:06:32;;;;;;;5.10;2.40;;;;;;;;;;5049201;28;20218;-32
2022/07/29 13:09:03;;;;;;;4.22;2.42;;;;;;;;;;5053520;28;20230;-31
2022/07/29 13:11:31;;;;;;;4.65;2.40;;;;;;;;;;5071752;28;20193;-32
2022/07/29 13:13:58;;;;;;;4.03;2.20;;;;;;;;;;5058885;28;20212;-30
2022/07/29 13:16:25;;;;;;;3.55;2.25;;;;;;;;;;5051492;28;20201;-35
2022/07/29 13:19:05;;;;;;;2.38;2.22;;;;;;;;;;5071741;28;20193;-32
2022/07/29 13:21:33;;;;;;;2.35;2.15;;;;;;;;;;5047631;28;20201;-33
2022/07/29 13:24:00;;;;;;;3.80;1.83;;;;;;;;;;5059739;28;20247;-30
2022/07/29 13:26:27;;;;;;;2.38;2.13;;;;;;;;;;5071771;28;20228;-34
2022/07/29 13:28:55;;;;;;;2.25;1.95;;;;;;;;;;5058470;28;20202;-32
2022/07/29 13:31:22;;;;;;;2.78;2.30;;;;;;;;;;5051161;28;20206;-32
2022/07/29 13:33:49;;;;;;;2.65;2.03;;;;;;;;;;5051333;28;20197;-36
2022/07/29 13:36:18;;;;;;;2.60;2.40;;;;;;;;;;5052267;28;20204;-31
2022/07/29 13:38:45;;;;;;;4.50;2.45;;;;;;;;;;5063199;28;20198;-33
2022/07/29 13:41:13;;;;;;;2.40;2.17;;;;;;;;;;5054702;28;20212;-33
2022/07/29 13:43:40;;;;;;;3.45;2.28;;;;;;;;;;5052850;28;20218;-35
2022/07/29 13:46:07;;;;;;;3.75;2.47;;;;;;;;;;5049022;28;20208;-36
2022/07/29 13:48:34;;;;;;;3.90;2.58;;;;;;;;;;5064497;28;20194;-36
2022/07/29 13:51:01;;;;;;;2.55;2.17;;;;;;;;;;5048323;28;20218;-32
2022/07/29 13:53:31;;;;;;;2.15;1.92;;;;;;;;;;5059550;28;20565;-36
2022/07/29 13:55:58;;;;;;;2.40;2.20;;;;;;;;;;5075546;28;20209;-34
2022/07/29 13:58:25;;;;;;;2.72;2.30;;;;;;;;;;5064931;28;20232;-32
2022/07/29 14:00:52;;;;;;;3.42;2.28;;;;;;;;;;5053660;28;20201;-31
2022/07/29 14:03:19;;;;;;;3.85;2.50;;;;;;;;;;5058000;28;20317;-33
2022/07/29 14:05:47;;;;;;;4.05;2.33;;;;;;;;;;5053516;28;20293;-30
2022/07/29 14:08:14;;;;;;;4.68;2.75;;;;;;;;;;5061388;28;20233;-37
2022/07/29 14:10:43;;;;;;;6.10;2.85;;;;;;;;;;5054958;28;20194;-31
2022/07/29 14:13:10;;;;;;;2.70;2.45;;;;;;;;;;5048221;28;20207;-35
2022/07/29 14:15:37;;;;;;;3.13;2.50;;;;;;;;;;5038005;28;20203;-34
2022/07/29 14:18:04;;;;;;;3.60;2.72;;;;;;;;;;5054029;28;20228;-34
2022/07/29 14:20:32;;;;;;;4.88;2.80;;;;;;;;;;5057627;28;20194;-35
2022/07/29 14:22:59;;;;;;;4.32;2.30;;;;;;;;;;5062448;28;20217;-32
2022/07/29 14:25:27;;;;;;;4.13;2.67;;;;;;;;;;5047984;28;20200;-34
2022/07/29 14:28:12;;;;;;;3.42;2.63;;;;;;;;;;5051737;28;20310;-31
2022/07/29 14:30:40;;;;;;;5.38;2.67;;;;;;;;;;5058016;28;20198;-41
2022/07/29 14:33:07;;;;;;;5.78;2.28;;;;;;;;;;5042546;28;20203;-41
2022/07/29 14:35:35;;;;;;;3.70;2.35;;;;;;;;;;5045627;28;20215;-43
2022/07/29 14:38:02;;;;;;;3.08;2.78;;;;;;;;;;5052884;28;20214;-41
2022/07/29 14:40:30;;;;;;;3.25;2.50;;;;;;;;;;5063273;28;20201;-42
2022/07/29 14:42:59;;;;;;;3.75;2.97;;;;;;;;;;5048094;28;20233;-42
2022/07/29 14:45:27;;;;;;;3.90;2.53;;;;;;;;;;5057526;28;20292;-42
2022/07/29 14:47:55;;;;;;;2.92;2.72;;;;;;;;;;5063801;28;20328;-45
2022/07/29 14:50:22;;;;;;;2.75;2.50;;;;;;;;;;5049021;28;20229;-42
2022/07/29 14:52:49;;;;;;;7.80;3.20;;;;;;;;;;5057175;28;20204;-42
2022/07/29 14:55:16;;;;;;;2.50;2.30;;;;;;;;;;5060093;28;20204;-39